| time (UTC) | temp F | wind direction | speed MPH | gust MPH | rain 1hr in | rain 24hr in | rain mn in | humidity % | barometer mb |
| 20260507183024 | 51 | 60 | 2.0 | 7.0 | 0.00 | 0.00 | 0.00 | 61 | 1016.7 |
| 20260507182021 | 51 | 0 | 3.0 | 8.0 | 0.00 | 0.00 | 0.00 | 61 | 1016.7 |
| 20260507181019 | 51 | 66 | 3.0 | 8.0 | 0.00 | 0.00 | 0.00 | 61 | 1016.6 |
| 20260507180016 | 52 | 187 | 3.0 | 7.0 | 0.00 | 0.00 | 0.00 | 61 | 1016.5 |
| 20260507175029 | 52 | 66 | 2.0 | 8.0 | 0.00 | 0.00 | 0.00 | 61 | 1016.4 |
| 20260507174026 | 52 | 320 | 2.0 | 5.0 | 0.00 | 0.00 | 0.00 | 61 | 1016.3 |
| 20260507173024 | 52 | 301 | 3.0 | 8.0 | 0.00 | 0.00 | 0.00 | 61 | 1016.3 |
| 20260507172041 | 52 | 2 | 3.0 | 8.0 | 0.00 | 0.00 | 0.00 | 60 | 1016.2 |
| 20260507171039 | 52 | 284 | 3.0 | 7.0 | 0.00 | 0.00 | 0.00 | 60 | 1016.2 |
| 20260507170017 | 52 | 17 | 2.0 | 9.0 | 0.00 | 0.00 | 0.00 | 60 | 1016.1 |
| 20260507165029 | 52 | 96 | 3.0 | 7.0 | 0.00 | 0.00 | 0.00 | 60 | 1016.0 |
| 20260507164026 | 52 | 292 | 3.0 | 8.0 | 0.00 | 0.00 | 0.00 | 60 | 1015.9 |
| 20260507163025 | 52 | 353 | 3.0 | 8.0 | 0.00 | 0.00 | 0.00 | 59 | 1016.0 |
| 20260507162041 | 53 | 4 | 3.0 | 8.0 | 0.00 | 0.00 | 0.00 | 59 | 1016.0 |
| 20260507161019 | 53 | 313 | 4.0 | 16.0 | 0.00 | 0.00 | 0.00 | 59 | 1016.0 |
| 20260507160017 | 53 | 344 | 4.0 | 10.0 | 0.00 | 0.00 | 0.00 | 59 | 1015.9 |
| 20260507155029 | 53 | 269 | 3.0 | 8.0 | 0.00 | 0.00 | 0.00 | 58 | 1015.9 |
| 20260507154027 | 54 | 27 | 4.0 | 10.0 | 0.00 | 0.00 | 0.00 | 58 | 1015.8 |
| 20260507153024 | 54 | 291 | 4.0 | 16.0 | 0.00 | 0.00 | 0.00 | 57 | 1015.7 |
| 20260507152042 | 54 | 358 | 4.0 | 11.0 | 0.00 | 0.00 | 0.00 | 56 | 1015.6 |
| 20260507151020 | 55 | 206 | 4.0 | 8.0 | 0.00 | 0.00 | 0.00 | 52 | 1015.6 |
| 20260507150017 | 54 | 251 | 4.0 | 11.0 | 0.00 | 0.00 | 0.00 | 54 | 1015.5 |
| 20260507145050 | 55 | 84 | 4.0 | 11.0 | 0.00 | 0.00 | 0.00 | 51 | 1015.4 |
| 20260507144027 | 55 | 38 | 3.0 | 8.0 | 0.00 | 0.00 | 0.00 | 52 | 1015.4 |
| 20260507143025 | 55 | 313 | 4.0 | 11.0 | 0.00 | 0.00 | 0.00 | 52 | 1015.3 |
| 20260507142022 | 55 | 79 | 5.0 | 11.0 | 0.00 | 0.00 | 0.00 | 52 | 1015.2 |
| 20260507141020 | 54 | 344 | 6.0 | 11.0 | 0.00 | 0.00 | 0.00 | 57 | 1015.2 |
| 20260507140017 | 54 | 339 | 6.0 | 11.0 | 0.00 | 0.00 | 0.00 | 55 | 1015.3 |
| 20260507135015 | 54 | 6 | 5.0 | 8.0 | 0.00 | 0.00 | 0.00 | 58 | 1015.2 |
| 20260507134027 | 54 | 351 | 5.0 | 11.0 | 0.00 | 0.00 | 0.00 | 58 | 1015.1 |
| 20260507133025 | 55 | 5 | 6.0 | 11.0 | 0.00 | 0.00 | 0.00 | 53 | 1015.0 |
| 20260507132042 | 55 | 359 | 5.0 | 12.0 | 0.00 | 0.00 | 0.00 | 53 | 1015.0 |
| 20260507131040 | 55 | 14 | 4.0 | 8.0 | 0.00 | 0.00 | 0.00 | 53 | 1014.9 |
| 20260507130018 | 54 | 355 | 8.0 | 11.0 | 0.00 | 0.01 | 0.00 | 54 | 1014.9 |
| 20260507125015 | 55 | 9 | 5.0 | 11.0 | 0.00 | 0.01 | 0.00 | 52 | 1014.9 |
| 20260507124027 | 55 | 26 | 7.0 | 12.0 | 0.00 | 0.01 | 0.00 | 52 | 1014.7 |
| 20260507123025 | 56 | 351 | 6.0 | 10.0 | 0.00 | 0.01 | 0.00 | 51 | 1014.7 |
| 20260507122023 | 56 | 22 | 8.0 | 12.0 | 0.00 | 0.01 | 0.00 | 50 | 1014.6 |
| 20260507121020 | 57 | 338 | 5.0 | 10.0 | 0.00 | 0.01 | 0.00 | 47 | 1014.6 |
| 20260507120018 | 56 | 346 | 4.0 | 10.0 | 0.00 | 0.01 | 0.00 | 50 | 1014.5 |
| 20260507115035 | 55 | 358 | 6.0 | 16.0 | 0.00 | 0.01 | 0.00 | 51 | 1014.5 |
| 20260507114028 | 55 | 5 | 8.0 | 11.0 | 0.00 | 0.01 | 0.00 | 50 | 1014.3 |
| 20260507113045 | 56 | 58 | 5.0 | 10.0 | 0.00 | 0.01 | 0.00 | 47 | 1014.3 |
| 20260507112023 | 56 | 3 | 7.0 | 11.0 | 0.00 | 0.02 | 0.00 | 49 | 1014.3 |
| 20260507111020 | 56 | 29 | 7.0 | 11.0 | 0.00 | 0.02 | 0.00 | 47 | 1014.3 |
| 20260507110018 | 57 | 337 | 7.0 | 11.0 | 0.00 | 0.04 | 0.00 | 46 | 1014.2 |
| 20260507105016 | 59 | 356 | 6.0 | 10.0 | 0.00 | 0.04 | 0.00 | 44 | 1014.1 |
| 20260507104028 | 58 | 344 | 6.0 | 17.0 | 0.00 | 0.04 | 0.00 | 47 | 1014.1 |
| 20260507103025 | 59 | 347 | 6.0 | 15.0 | 0.00 | 0.04 | 0.00 | 46 | 1014.0 |
| 20260507102023 | 58 | 343 | 5.0 | 11.0 | 0.00 | 0.04 | 0.00 | 51 | 1014.0 |
| 20260507101021 | 56 | 355 | 6.0 | 11.0 | 0.00 | 0.05 | 0.00 | 52 | 1013.9 |
| 20260507100038 | 55 | 345 | 5.0 | 14.0 | 0.00 | 0.05 | 0.00 | 53 | 1013.8 |
| 20260507095017 | 56 | 14 | 6.0 | 11.0 | 0.00 | 0.06 | 0.00 | 53 | 1013.8 |
| 20260507094029 | 54 | 351 | 5.0 | 11.0 | 0.00 | 0.06 | 0.00 | 57 | 1013.8 |
| 20260507093026 | 54 | 0 | 8.0 | 13.0 | 0.00 | 0.06 | 0.00 | 53 | 1013.6 |
| 20260507092024 | 56 | 317 | 7.0 | 13.0 | 0.00 | 0.07 | 0.00 | 54 | 1013.5 |
| 20260507091041 | 56 | 347 | 8.0 | 15.0 | 0.00 | 0.07 | 0.00 | 54 | 1013.4 |
| 20260507090019 | 55 | 11 | 8.0 | 15.0 | 0.00 | 0.07 | 0.00 | 59 | 1013.6 |
| 20260507085017 | 53 | 358 | 8.0 | 15.0 | 0.00 | 0.08 | 0.00 | 62 | 1013.5 |
| 20260507084029 | 52 | 328 | 8.0 | 15.0 | 0.00 | 0.08 | 0.00 | 65 | 1013.5 |
| 20260507083026 | 51 | 8 | 5.0 | 11.0 | 0.00 | 0.08 | 0.00 | 67 | 1013.4 |
| 20260507082024 | 50 | 322 | 6.0 | 14.0 | 0.00 | 0.08 | 0.00 | 70 | 1013.5 |
| 20260507081041 | 50 | 66 | 4.0 | 8.0 | 0.00 | 0.08 | 0.00 | 70 | 1013.5 |
| 20260507080019 | 50 | 56 | 4.0 | 8.0 | 0.00 | 0.08 | 0.00 | 70 | 1013.4 |
| 20260507075037 | 49 | 327 | 5.0 | 16.0 | 0.00 | 0.09 | 0.00 | 70 | 1013.2 |
| 20260507074029 | 49 | 31 | 5.0 | 9.0 | 0.00 | 0.11 | 0.00 | 71 | 1013.1 |
| 20260507073027 | 48 | 321 | 6.0 | 12.0 | 0.00 | 0.11 | 0.00 | 72 | 1012.9 |
| 20260507072025 | 47 | 29 | 4.0 | 10.0 | 0.00 | 0.11 | 0.00 | 74 | 1012.8 |
| 20260507071022 | 47 | 110 | 4.0 | 10.0 | 0.00 | 0.11 | 0.00 | 75 | 1012.9 |
| 20260507070019 | 46 | 313 | 4.0 | 10.0 | 0.00 | 0.12 | 0.00 | 76 | 1012.8 |
| 20260507065017 | 46 | 70 | 5.0 | 14.0 | 0.00 | 0.12 | 0.00 | 76 | 1012.7 |
| 20260507064029 | 46 | 45 | 5.0 | 11.0 | 0.00 | 0.13 | 0.00 | 77 | 1012.6 |
| 20260507063028 | 46 | 18 | 7.0 | 15.0 | 0.00 | 0.14 | 0.00 | 78 | 1012.6 |
| 20260507062044 | 45 | 247 | 2.0 | 5.0 | 0.00 | 0.15 | 0.00 | 82 | 1012.5 |
| 20260507061042 | 45 | 19 | 3.0 | 7.0 | 0.00 | 0.15 | 0.00 | 85 | 1012.5 |
| 20260507060019 | 45 | 325 | 4.0 | 12.0 | 0.00 | 0.17 | 0.00 | 85 | 1012.3 |
| 20260507055017 | 45 | 7 | 5.0 | 16.0 | 0.00 | 0.18 | 0.00 | 87 | 1012.3 |
| 20260507054030 | 45 | 8 | 6.0 | 15.0 | 0.00 | 0.19 | 0.00 | 88 | 1012.2 |
| 20260507053027 | 45 | 91 | 4.0 | 11.0 | 0.00 | 0.20 | 0.00 | 89 | 1012.2 |
| 20260507052025 | 44 | 331 | 5.0 | 12.0 | 0.00 | 0.21 | 0.00 | 90 | 1012.1 |
| 20260507051022 | 44 | 206 | 4.0 | 12.0 | 0.00 | 0.22 | 0.00 | 90 | 1012.0 |
| 20260507050020 | 45 | 157 | 5.0 | 11.0 | 0.00 | 0.25 | 0.00 | 90 | 1012.0 |
| 20260507045017 | 45 | 10 | 6.0 | 12.0 | 0.00 | 0.26 | 0.00 | 89 | 1011.9 |
| 20260507044015 | 45 | 5 | 3.0 | 12.0 | 0.00 | 0.27 | 0.00 | 89 | 1011.6 |
| 20260507043028 | 45 | 55 | 3.0 | 7.0 | 0.00 | 0.30 | 0.00 | 88 | 1011.5 |
| 20260507042025 | 45 | 218 | 4.0 | 14.0 | 0.00 | 0.30 | 0.00 | 88 | 1011.2 |
| 20260507041023 | 45 | 25 | 3.0 | 7.0 | 0.00 | 0.32 | 0.00 | 89 | 1011.3 |
| 20260507040040 | 45 | 359 | 4.0 | 9.0 | 0.00 | 0.33 | 0.00 | 88 | 1011.1 |
| 20260507035017 | 45 | 254 | 3.0 | 6.0 | 0.00 | 0.34 | 0.00 | 88 | 1011.0 |
| 20260507034015 | 45 | 22 | 3.0 | 7.0 | 0.00 | 0.34 | 0.00 | 87 | 1011.0 |
| 20260507033048 | 45 | 54 | 2.0 | 4.0 | 0.00 | 0.34 | 0.00 | 86 | 1010.9 |
| 20260507032025 | 45 | 13 | 2.0 | 5.0 | 0.00 | 0.34 | 0.00 | 86 | 1010.8 |
| 20260507031043 | 45 | 16 | 2.0 | 4.0 | 0.00 | 0.34 | 0.00 | 86 | 1010.7 |
| 20260507030020 | 45 | 59 | 3.0 | 8.0 | 0.00 | 0.34 | 0.00 | 86 | 1010.7 |
| 20260507025018 | 45 | 288 | 4.0 | 11.0 | 0.00 | 0.34 | 0.00 | 86 | 1010.7 |
| 20260507024016 | 45 | 323 | 5.0 | 11.0 | 0.00 | 0.34 | 0.00 | 86 | 1010.7 |
| 20260507023028 | 45 | 356 | 5.0 | 14.0 | 0.00 | 0.34 | 0.00 | 86 | 1010.6 |
| 20260507022025 | 45 | 324 | 5.0 | 11.0 | 0.00 | 0.34 | 0.00 | 87 | 1010.6 |
| 20260507021043 | 45 | 33 | 6.0 | 13.0 | 0.00 | 0.34 | 0.00 | 89 | 1010.6 |
| 20260507020021 | 45 | 86 | 2.0 | 8.0 | 0.00 | 0.34 | 0.00 | 90 | 1010.5 |
| 20260507015018 | 45 | 330 | 5.0 | 12.0 | 0.00 | 0.34 | 0.00 | 90 | 1010.5 |
| 20260507014015 | 45 | 331 | 3.0 | 11.0 | 0.00 | 0.34 | 0.00 | 90 | 1010.4 |
| 20260507013028 | 44 | 0 | 5.0 | 11.0 | 0.00 | 0.34 | 0.00 | 91 | 1010.2 |
| 20260507012026 | 44 | 344 | 3.0 | 8.0 | 0.00 | 0.34 | 0.00 | 91 | 1010.2 |
| 20260507011023 | 44 | 94 | 2.0 | 4.0 | 0.00 | 0.34 | 0.00 | 91 | 1010.1 |
| 20260507010021 | 44 | 164 | 3.0 | 9.0 | 0.00 | 0.34 | 0.00 | 91 | 1009.9 |
| 20260507005018 | 45 | 162 | 2.0 | 5.0 | 0.00 | 0.34 | 0.00 | 91 | 1009.9 |
| 20260507004015 | 45 | 93 | 3.0 | 11.0 | 0.00 | 0.34 | 0.00 | 91 | 1009.9 |
| 20260507003028 | 45 | 338 | 2.0 | 5.0 | 0.00 | 0.34 | 0.00 | 91 | 1010.2 |
| 20260507002026 | 45 | 98 | 3.0 | 7.0 | 0.00 | 0.34 | 0.00 | 90 | 1010.2 |
| 20260507001024 | 45 | 26 | 2.0 | 5.0 | 0.00 | 0.34 | 0.00 | 90 | 1009.9 |
| 20260507000022 | 45 | 311 | 2.0 | 8.0 | 0.00 | 0.34 | 0.00 | 90 | 1009.9 |
| 20260506235018 | 45 | 18 | 4.0 | 10.0 | 0.00 | 0.34 | 0.00 | 91 | 1009.7 |
| 20260506234016 | 45 | 335 | 3.0 | 5.0 | 0.00 | 0.34 | 0.00 | 91 | 1009.6 |
| 20260506233028 | 45 | 70 | 2.0 | 5.0 | 0.00 | 0.34 | 0.00 | 91 | 1009.7 |
| 20260506232026 | 45 | 344 | 3.0 | 9.0 | 0.00 | 0.34 | 0.00 | 90 | 1009.6 |
| 20260506231023 | 45 | 39 | 2.0 | 6.0 | 0.00 | 0.34 | 0.00 | 90 | 1009.5 |
| 20260506230021 | 45 | 38 | 2.0 | 6.0 | 0.00 | 0.34 | 0.00 | 90 | 1009.7 |
| 20260506225018 | 45 | 9 | 3.0 | 10.0 | 0.00 | 0.34 | 0.00 | 90 | 1009.6 |
| 20260506224016 | 45 | 337 | 3.0 | 7.0 | 0.00 | 0.34 | 0.00 | 90 | 1009.7 |
| 20260506223049 | 45 | 313 | 3.0 | 7.0 | 0.00 | 0.34 | 0.00 | 90 | 1009.5 |
| 20260506222026 | 45 | 231 | 4.0 | 10.0 | 0.00 | 0.34 | 0.00 | 90 | 1009.5 |
| 20260506221044 | 45 | 318 | 3.0 | 13.0 | 0.00 | 0.34 | 0.00 | 90 | 1009.7 |
| 20260506220021 | 45 | 24 | 5.0 | 19.0 | 0.00 | 0.34 | 0.00 | 90 | 1009.6 |
| 20260506215018 | 45 | 331 | 6.0 | 17.0 | 0.00 | 0.34 | 0.34 | 91 | 1009.6 |
| 20260506214016 | 45 | 334 | 6.0 | 16.0 | 0.00 | 0.34 | 0.34 | 91 | 1009.6 |
| 20260506213029 | 45 | 15 | 3.0 | 7.0 | 0.00 | 0.34 | 0.34 | 91 | 1009.7 |
| 20260506212026 | 45 | 359 | 2.0 | 7.0 | 0.00 | 0.34 | 0.34 | 91 | 1009.6 |
| 20260506211024 | 45 | 359 | 3.0 | 9.0 | 0.00 | 0.34 | 0.34 | 91 | 1009.2 |
| 20260506210021 | 45 | 356 | 5.0 | 14.0 | 0.00 | 0.34 | 0.34 | 91 | 1009.1 |
| 20260506205019 | 45 | 358 | 3.0 | 14.0 | 0.00 | 0.34 | 0.34 | 90 | 1009.1 |
| 20260506204017 | 45 | 4 | 4.0 | 9.0 | 0.00 | 0.34 | 0.34 | 90 | 1008.9 |
| 20260506203029 | 45 | 95 | 3.0 | 11.0 | 0.00 | 0.34 | 0.34 | 90 | 1008.9 |
| 20260506202027 | 45 | 278 | 5.0 | 11.0 | 0.00 | 0.34 | 0.34 | 90 | 1008.8 |
| 20260506201044 | 45 | 349 | 4.0 | 14.0 | 0.00 | 0.34 | 0.34 | 90 | 1009.0 |
| 20260506200022 | 45 | 328 | 4.0 | 10.0 | 0.00 | 0.34 | 0.34 | 90 | 1008.7 |
| 20260506195019 | 45 | 317 | 3.0 | 11.0 | 0.00 | 0.34 | 0.34 | 90 | 1008.7 |
| 20260506194017 | 45 | 357 | 4.0 | 8.0 | 0.00 | 0.34 | 0.34 | 90 | 1008.7 |
| 20260506193050 | 45 | 15 | 2.0 | 5.0 | 0.00 | 0.34 | 0.34 | 90 | 1008.8 |
| 20260506192027 | 46 | 325 | 4.0 | 8.0 | 0.00 | 0.34 | 0.34 | 85 | 1008.9 |
| 20260506191025 | 46 | 304 | 6.0 | 13.0 | 0.00 | 0.34 | 0.34 | 85 | 1008.7 |
| 20260506190022 | 46 | 333 | 4.0 | 11.0 | 0.00 | 0.34 | 0.34 | 85 | 1008.5 |
| 20260506185039 | 46 | 323 | 3.0 | 8.0 | 0.00 | 0.34 | 0.34 | 84 | 1008.3 |
| 20260506184017 | 47 | 0 | 3.0 | 10.0 | 0.00 | 0.34 | 0.34 | 85 | 1008.4 |